RJOZ(METAR)
10/16 18:00
METAR RJOZ 160900Z 01007KT 9999 FEW030 17/09 Q1022 RMK 1CU030 A3019=
戻る
トップページへ戻る
IMOC Co,.Ltd.